Terminal Aerodrome Forecast
Issued by NWS Bismarck, ND

Home | Current Version | Previous Version | Graphics & Text | Print | Product List | Glossary On
Versions: 1 2 3 4 5 6 7 8 9 10 11 12 13 14 15 16 17 18 19 20 21 22 23 24 25 26 27 28 29
000
FTUS43 KBIS 152107 AAB
TAFBIS
TAF AMD
KBIS 152107Z 1521/1618 VRB05KT P6SM -SHRA SCT015 OVC025
      TEMPO 1521/1523 3SM SHRA BKN015 OVC025
     FM152300 13005KT 5SM BR VCSH SCT009 BKN015 OVC025
     FM160100 09005KT P6SM VCSH SCT005 OVC011
     FM160400 VRB04KT 5SM BR BKN005
     FM161500 35007KT P6SM SCT008 SCT015=

USA.gov is the U.S. government's official web portal to all federal, state and local government web resources and services.